createdAt,value
2023-05-21T00:00:08.345Z,16.66
2023-05-21T00:02:39.488Z,16.65
2023-05-21T00:05:13.797Z,16.64
2023-05-21T00:07:41.449Z,16.60
2023-05-21T00:10:08.417Z,16.55
2023-05-21T00:12:35.210Z,16.53
2023-05-21T00:15:02.005Z,16.52
2023-05-21T00:17:28.844Z,16.48
2023-05-21T00:19:56.876Z,16.45
2023-05-21T00:22:25.087Z,16.46
2023-05-21T00:24:51.710Z,16.52
2023-05-21T00:27:18.481Z,16.55
2023-05-21T00:29:45.306Z,16.61
2023-05-21T00:32:12.118Z,16.64
2023-05-21T00:34:39.430Z,16.64
2023-05-21T00:37:06.250Z,16.64
2023-05-21T00:39:34.328Z,16.64
2023-05-21T00:42:01.124Z,16.65
2023-05-21T00:44:34.480Z,16.65
2023-05-21T00:47:02.251Z,16.64
2023-05-21T00:49:29.364Z,16.64
2023-05-21T00:51:56.488Z,16.63
2023-05-21T00:54:23.824Z,16.63
2023-05-21T00:56:52.094Z,16.58
2023-05-21T00:59:18.978Z,16.57
2023-05-21T01:01:45.913Z,16.54
2023-05-21T01:04:12.768Z,16.52
2023-05-21T01:06:39.435Z,16.50
2023-05-21T01:09:07.377Z,16.47
2023-05-21T01:11:38.861Z,16.47
2023-05-21T01:14:10.266Z,16.45
2023-05-21T01:16:37.881Z,16.42
2023-05-21T01:19:05.464Z,16.37
2023-05-21T01:21:36.125Z,16.28
2023-05-21T01:24:05.682Z,16.22
2023-05-21T01:26:33.778Z,16.16
2023-05-21T01:29:00.502Z,16.12
2023-05-21T01:31:31.316Z,16.12
2023-05-21T01:34:01.821Z,16.09
2023-05-21T01:36:32.866Z,16.08
2023-05-21T01:39:02.103Z,16.05
2023-05-21T01:41:33.330Z,16.02
2023-05-21T01:44:00.431Z,15.93
2023-05-21T01:46:29.032Z,15.85
2023-05-21T01:48:56.350Z,15.79
2023-05-21T01:51:24.036Z,15.76
2023-05-21T01:53:50.783Z,15.73
2023-05-21T01:56:17.494Z,15.74
2023-05-21T01:58:45.657Z,15.75
2023-05-21T02:01:12.761Z,15.74
2023-05-21T02:03:39.621Z,15.76
2023-05-21T02:06:06.351Z,15.75
2023-05-21T02:08:33.650Z,15.79
2023-05-21T02:11:00.461Z,15.78
2023-05-21T02:13:29.236Z,15.76
2023-05-21T02:15:57.400Z,15.75
2023-05-21T02:18:24.651Z,15.72
2023-05-21T02:20:51.484Z,15.69
2023-05-21T02:23:18.305Z,15.68
2023-05-21T02:25:48.141Z,15.66
2023-05-21T02:28:15.944Z,15.65
2023-05-21T02:30:42.607Z,15.64
2023-05-21T02:33:14.284Z,15.61
2023-05-21T02:35:41.744Z,15.56
2023-05-21T02:38:09.202Z,15.49
2023-05-21T02:40:36.030Z,15.45
2023-05-21T02:43:02.709Z,15.42
2023-05-21T02:45:31.456Z,15.38
2023-05-21T02:47:58.707Z,15.31
2023-05-21T02:50:26.915Z,15.27
2023-05-21T02:52:57.390Z,15.22
2023-05-21T02:55:24.140Z,15.19
2023-05-21T02:57:50.950Z,15.17
2023-05-21T03:00:17.857Z,15.18
2023-05-21T03:02:44.686Z,15.18
2023-05-21T03:05:11.483Z,15.15
2023-05-21T03:07:39.538Z,15.15
2023-05-21T03:10:06.640Z,15.13
2023-05-21T03:12:33.673Z,15.11
2023-05-21T03:15:00.904Z,15.13
2023-05-21T03:17:28.219Z,15.15
2023-05-21T03:19:55.155Z,15.13
2023-05-21T03:22:22.274Z,15.10
2023-05-21T03:24:50.374Z,15.09
2023-05-21T03:27:18.185Z,15.09
2023-05-21T03:29:46.040Z,15.06
2023-05-21T03:32:13.286Z,15.04
2023-05-21T03:34:40.391Z,15.02
2023-05-21T03:37:07.136Z,15.03
2023-05-21T03:39:34.201Z,14.99
2023-05-21T03:42:02.375Z,14.96
2023-05-21T03:44:39.505Z,14.93
2023-05-21T03:47:38.444Z,14.87
2023-05-21T03:50:09.342Z,14.86
2023-05-21T03:52:36.366Z,14.89
2023-05-21T03:55:03.268Z,14.84
2023-05-21T03:57:31.555Z,14.82
2023-05-21T03:59:59.126Z,14.77
2023-05-21T04:02:27.542Z,14.75
2023-05-21T04:04:56.078Z,14.73
2023-05-21T04:07:23.935Z,14.79
2023-05-21T04:09:50.643Z,14.83
2023-05-21T04:12:19.137Z,14.88
2023-05-21T04:14:47.345Z,14.92
2023-05-21T04:17:14.140Z,14.98
2023-05-21T04:19:41.031Z,15.08
2023-05-21T04:22:07.912Z,15.17
2023-05-21T04:24:34.648Z,15.26
2023-05-21T04:27:16.674Z,15.35
2023-05-21T04:29:44.018Z,15.39
2023-05-21T04:32:15.079Z,15.42
2023-05-21T04:34:42.053Z,15.53
2023-05-21T04:37:09.932Z,15.64
2023-05-21T04:39:36.676Z,15.76
2023-05-21T04:42:04.168Z,15.86
2023-05-21T04:44:30.938Z,15.92
2023-05-21T04:46:59.165Z,16.01
2023-05-21T04:49:27.353Z,16.06
2023-05-21T04:51:54.037Z,16.19
2023-05-21T04:54:20.730Z,16.26
2023-05-21T04:56:47.715Z,16.31
2023-05-21T04:59:15.381Z,16.62
2023-05-21T05:01:44.048Z,17.03
2023-05-21T05:04:10.881Z,17.44
2023-05-21T05:06:38.939Z,17.78
2023-05-21T05:09:05.685Z,18.25
2023-05-21T05:11:32.445Z,18.60
2023-05-21T05:13:59.153Z,18.96
2023-05-21T05:16:26.242Z,19.17
2023-05-21T05:18:55.985Z,19.23
2023-05-21T05:21:23.651Z,19.09
2023-05-21T05:23:52.174Z,18.92
2023-05-21T05:26:22.545Z,18.82
2023-05-21T05:28:49.572Z,18.77
2023-05-21T05:31:16.341Z,18.69
2023-05-21T05:33:44.013Z,18.56
2023-05-21T05:36:11.778Z,18.42
2023-05-21T05:38:38.677Z,18.30
2023-05-21T05:41:06.817Z,18.19
2023-05-21T05:43:34.680Z,18.10
2023-05-21T05:46:01.535Z,18.02
2023-05-21T05:48:28.608Z,18.06
2023-05-21T05:50:57.147Z,18.00
2023-05-21T05:53:25.453Z,17.96
2023-05-21T05:55:52.894Z,18.03
2023-05-21T05:58:20.999Z,18.02
2023-05-21T06:00:55.824Z,18.13
2023-05-21T06:03:24.386Z,18.22
2023-05-21T06:05:53.016Z,18.35
2023-05-21T06:08:20.148Z,18.59
2023-05-21T06:10:46.852Z,18.68
2023-05-21T06:13:14.722Z,18.74
2023-05-21T06:15:45.713Z,18.71
2023-05-21T06:18:12.518Z,18.87
2023-05-21T06:20:39.181Z,18.96
2023-05-21T06:23:07.551Z,19.11
2023-05-21T06:25:34.424Z,19.07
2023-05-21T06:28:01.341Z,19.20
2023-05-21T06:30:29.928Z,19.26
2023-05-21T06:32:58.560Z,19.40
2023-05-21T06:35:25.630Z,19.55
2023-05-21T06:37:52.562Z,19.66
2023-05-21T06:40:20.609Z,19.70
2023-05-21T06:42:47.792Z,19.77
2023-05-21T06:45:20.314Z,19.89
2023-05-21T06:47:47.160Z,20.11
2023-05-21T06:50:15.330Z,20.50
2023-05-21T06:52:42.101Z,20.66
2023-05-21T06:55:09.646Z,20.88
2023-05-21T06:57:58.371Z,21.15
2023-05-21T07:00:25.459Z,21.37
2023-05-21T07:02:52.294Z,21.50
2023-05-21T07:05:20.883Z,21.37
2023-05-21T07:07:47.596Z,21.21
2023-05-21T07:10:14.353Z,21.13
2023-05-21T07:12:41.963Z,21.22
2023-05-21T07:15:10.002Z,21.44
2023-05-21T07:17:37.516Z,21.56
2023-05-21T07:20:07.984Z,21.95
2023-05-21T07:22:38.265Z,22.14
2023-05-21T07:25:06.210Z,22.32
2023-05-21T07:27:33.513Z,22.29
2023-05-21T07:30:00.293Z,22.43
2023-05-21T07:32:29.171Z,22.62
2023-05-21T07:34:57.048Z,22.93
2023-05-21T07:37:27.817Z,23.22
2023-05-21T07:39:56.690Z,23.26
2023-05-21T07:42:23.397Z,23.31
2023-05-21T07:44:50.118Z,23.24
2023-05-21T07:47:17.077Z,23.04
2023-05-21T07:49:44.707Z,22.90
2023-05-21T07:52:11.450Z,22.66
2023-05-21T07:54:38.259Z,22.75
2023-05-21T07:57:06.731Z,22.97
2023-05-21T07:59:56.606Z,23.12
2023-05-21T08:02:24.000Z,23.36
2023-05-21T08:04:52.624Z,23.72
2023-05-21T08:07:20.250Z,23.71
2023-05-21T08:09:47.179Z,23.73
2023-05-21T08:12:16.112Z,23.82
2023-05-21T08:14:43.779Z,24.04
2023-05-21T08:17:12.076Z,24.27
2023-05-21T08:19:39.117Z,24.16
2023-05-21T08:22:09.169Z,24.28
2023-05-21T08:24:38.203Z,24.10
2023-05-21T08:27:05.570Z,24.21
2023-05-21T08:29:36.586Z,24.48
2023-05-21T08:32:06.009Z,24.92
2023-05-21T08:34:33.144Z,24.99
2023-05-21T08:37:18.618Z,25.29
2023-05-21T08:40:15.112Z,25.23
2023-05-21T08:42:44.606Z,25.44
2023-05-21T08:45:19.777Z,25.39
2023-05-21T08:47:49.406Z,25.47
2023-05-21T08:50:20.610Z,25.70
2023-05-21T08:52:47.904Z,25.68
2023-05-21T08:55:14.644Z,25.57
2023-05-21T08:57:43.520Z,25.49
2023-05-21T09:00:11.909Z,25.46
2023-05-21T09:02:44.450Z,25.69
2023-05-21T09:05:12.366Z,25.99
2023-05-21T09:07:43.016Z,26.06
2023-05-21T09:10:29.399Z,25.98
2023-05-21T09:12:56.280Z,25.88
2023-05-21T09:15:23.219Z,25.73
2023-05-21T09:17:51.718Z,25.76
2023-05-21T09:20:50.649Z,25.96
2023-05-21T09:23:18.131Z,25.78
2023-05-21T09:25:46.813Z,25.99
2023-05-21T09:28:19.218Z,26.24
2023-05-21T09:30:47.152Z,26.44
2023-05-21T09:33:24.484Z,26.17
2023-05-21T09:35:51.549Z,26.20
2023-05-21T09:38:18.322Z,25.92
2023-05-21T09:40:48.539Z,25.92
2023-05-21T09:43:21.583Z,25.64
2023-05-21T09:45:52.400Z,25.65
2023-05-21T09:48:34.629Z,25.92
2023-05-21T09:51:10.336Z,25.98
2023-05-21T09:53:37.409Z,26.04
2023-05-21T09:56:05.311Z,26.36
2023-05-21T09:58:32.431Z,26.33
2023-05-21T10:00:59.151Z,26.40
2023-05-21T10:03:28.431Z,26.37
2023-05-21T10:05:58.120Z,26.20
2023-05-21T10:08:27.430Z,26.18
2023-05-21T10:10:54.127Z,25.75
2023-05-21T10:13:22.095Z,25.65
2023-05-21T10:15:53.206Z,25.68
2023-05-21T10:18:25.261Z,25.83
2023-05-21T10:20:52.272Z,26.06
2023-05-21T10:23:20.810Z,26.35
2023-05-21T10:25:47.844Z,26.33
2023-05-21T10:28:18.314Z,26.28
2023-05-21T10:30:46.302Z,26.26
2023-05-21T10:33:16.417Z,26.58
2023-05-21T10:35:44.965Z,26.73
2023-05-21T10:38:11.971Z,26.77
2023-05-21T10:40:40.419Z,26.42
2023-05-21T10:43:32.210Z,26.52
2023-05-21T10:46:08.498Z,26.61
2023-05-21T10:48:46.482Z,26.69
2023-05-21T10:51:20.378Z,26.83
2023-05-21T10:53:56.007Z,27.03
2023-05-21T10:56:25.221Z,27.24
2023-05-21T10:59:00.909Z,27.52
2023-05-21T11:01:28.852Z,27.40
2023-05-21T11:03:56.069Z,26.80
2023-05-21T11:06:26.642Z,26.92
2023-05-21T11:08:55.291Z,26.86
2023-05-21T11:11:43.911Z,26.95
2023-05-21T11:14:26.779Z,27.22
2023-05-21T11:16:53.806Z,27.48
2023-05-21T11:19:20.609Z,27.52
2023-05-21T11:21:50.490Z,27.66
2023-05-21T11:24:20.676Z,27.71
2023-05-21T11:27:02.471Z,27.72
2023-05-21T11:29:42.723Z,27.43
2023-05-21T11:32:10.135Z,27.64
2023-05-21T11:34:39.376Z,28.06
2023-05-21T11:37:27.858Z,28.03
2023-05-21T11:39:55.564Z,27.96
2023-05-21T11:42:33.907Z,27.90
2023-05-21T11:45:01.842Z,27.96
2023-05-21T11:47:29.209Z,28.31
2023-05-21T11:49:57.189Z,28.53
2023-05-21T11:52:23.973Z,28.72
2023-05-21T11:54:54.068Z,28.84
2023-05-21T11:57:22.457Z,28.44
2023-05-21T11:59:53.713Z,27.75
2023-05-21T12:02:21.481Z,27.52
2023-05-21T12:04:48.662Z,27.71
2023-05-21T12:07:17.912Z,27.82
2023-05-21T12:09:45.482Z,28.15
2023-05-21T12:12:16.449Z,28.35
2023-05-21T12:14:43.881Z,28.74
2023-05-21T12:17:13.526Z,28.58
2023-05-21T12:19:41.159Z,28.32
2023-05-21T12:22:08.209Z,28.22
2023-05-21T12:24:35.661Z,28.22
2023-05-21T12:27:03.882Z,28.28
2023-05-21T12:29:31.503Z,28.45
2023-05-21T12:31:59.541Z,28.47
2023-05-21T12:34:41.248Z,28.41
2023-05-21T12:37:08.090Z,28.42
2023-05-21T12:39:37.835Z,28.30
2023-05-21T12:42:04.760Z,28.39
2023-05-21T12:44:31.747Z,28.54
2023-05-21T12:46:59.387Z,28.33
2023-05-21T12:49:36.415Z,28.47
2023-05-21T12:52:06.086Z,28.62
2023-05-21T12:54:33.190Z,28.61
2023-05-21T12:57:05.927Z,28.30
2023-05-21T12:59:39.607Z,28.16
2023-05-21T13:02:06.374Z,28.10
2023-05-21T13:04:36.215Z,27.91
2023-05-21T13:07:04.919Z,28.17
2023-05-21T13:09:33.198Z,28.12
2023-05-21T13:11:59.914Z,28.04
2023-05-21T13:14:26.645Z,28.14
2023-05-21T13:16:53.385Z,28.28
2023-05-21T13:19:20.075Z,28.23
2023-05-21T13:21:46.737Z,28.15
2023-05-21T13:24:13.827Z,27.89
2023-05-21T13:26:41.913Z,27.91
2023-05-21T13:29:08.648Z,27.94
2023-05-21T13:31:35.522Z,27.84
2023-05-21T13:34:03.682Z,27.91
2023-05-21T13:36:31.852Z,28.01
2023-05-21T13:38:58.577Z,27.72
2023-05-21T13:41:26.163Z,27.76
2023-05-21T13:43:54.392Z,27.75
2023-05-21T13:46:21.226Z,27.76
2023-05-21T13:48:48.004Z,27.80
2023-05-21T13:51:22.476Z,27.91
2023-05-21T13:53:57.748Z,28.04
2023-05-21T13:56:24.492Z,28.04
2023-05-21T13:58:51.191Z,28.12
2023-05-21T14:01:19.450Z,28.13
2023-05-21T14:03:46.217Z,28.19
2023-05-21T14:06:12.964Z,28.18
2023-05-21T14:08:39.710Z,28.05
2023-05-21T14:11:06.622Z,27.98
2023-05-21T14:13:33.710Z,28.13
2023-05-21T14:16:00.448Z,28.20
2023-05-21T14:18:28.549Z,28.07
2023-05-21T14:20:55.410Z,28.15
2023-05-21T14:23:22.162Z,28.24
2023-05-21T14:25:48.812Z,28.18
2023-05-21T14:28:15.654Z,28.04
2023-05-21T14:30:42.320Z,28.01
2023-05-21T14:33:09.095Z,28.12
2023-05-21T14:35:37.340Z,28.09
2023-05-21T14:38:04.399Z,28.00
2023-05-21T14:40:31.032Z,27.86
2023-05-21T14:42:57.944Z,27.85
2023-05-21T14:45:24.700Z,27.87
2023-05-21T14:47:51.578Z,27.82
2023-05-21T14:50:18.524Z,27.75
2023-05-21T14:52:46.751Z,27.65
2023-05-21T14:55:13.917Z,27.48
2023-05-21T14:57:40.783Z,27.37
2023-05-21T15:00:08.889Z,27.36
2023-05-21T15:02:35.713Z,27.44
2023-05-21T15:05:02.589Z,27.48
2023-05-21T15:07:29.310Z,27.43
2023-05-21T15:09:57.772Z,27.34
2023-05-21T15:12:24.509Z,27.33
2023-05-21T15:14:51.575Z,27.34
2023-05-21T15:17:18.264Z,27.35
2023-05-21T15:19:45.093Z,27.41
2023-05-21T15:22:11.813Z,27.58
2023-05-21T15:24:38.608Z,27.71
2023-05-21T15:27:06.791Z,27.77
2023-05-21T15:29:33.583Z,27.80
2023-05-21T15:32:05.046Z,27.87
2023-05-21T15:34:31.805Z,28.03
2023-05-21T15:36:58.587Z,28.28
2023-05-21T15:39:25.937Z,28.27
2023-05-21T15:41:54.021Z,28.28
2023-05-21T15:44:22.291Z,28.30
2023-05-21T15:46:50.055Z,28.27
2023-05-21T15:49:16.983Z,28.38
2023-05-21T15:51:44.393Z,28.51
2023-05-21T15:54:11.202Z,28.60
2023-05-21T15:56:37.959Z,28.60
2023-05-21T15:59:04.803Z,28.53
2023-05-21T16:01:33.470Z,28.45
2023-05-21T16:04:00.962Z,28.39
2023-05-21T16:06:27.921Z,28.40
2023-05-21T16:08:54.694Z,28.45
2023-05-21T16:11:21.556Z,28.46
2023-05-21T16:13:48.429Z,28.62
2023-05-21T16:16:15.287Z,28.45
2023-05-21T16:18:43.417Z,28.29
2023-05-21T16:21:10.227Z,28.29
2023-05-21T16:23:38.628Z,28.22
2023-05-21T16:26:05.499Z,28.18
2023-05-21T16:28:32.320Z,28.20
2023-05-21T16:30:59.122Z,28.12
2023-05-21T16:33:25.902Z,27.98
2023-05-21T16:35:54.488Z,27.97
2023-05-21T16:38:21.444Z,27.93
2023-05-21T16:40:48.947Z,27.91
2023-05-21T16:43:15.754Z,27.79
2023-05-21T16:45:44.028Z,27.80
2023-05-21T16:48:11.984Z,27.91
2023-05-21T16:50:39.084Z,27.90
2023-05-21T16:53:08.633Z,27.86
2023-05-21T16:55:36.450Z,27.83
2023-05-21T16:58:04.622Z,27.89
2023-05-21T17:00:31.354Z,27.85
2023-05-21T17:02:58.097Z,27.78
2023-05-21T17:05:26.193Z,27.64
2023-05-21T17:07:52.943Z,27.58
2023-05-21T17:10:21.133Z,27.63
2023-05-21T17:12:47.866Z,27.78
2023-05-21T17:15:14.532Z,27.83
2023-05-21T17:17:41.486Z,27.76
2023-05-21T17:20:08.831Z,27.67
2023-05-21T17:22:35.956Z,27.62
2023-05-21T17:25:03.097Z,27.52
2023-05-21T17:27:31.280Z,27.45
2023-05-21T17:29:57.948Z,27.37
2023-05-21T17:32:24.713Z,27.28
2023-05-21T17:34:53.069Z,27.16
2023-05-21T17:37:19.849Z,27.07
2023-05-21T17:39:46.648Z,26.99
2023-05-21T17:42:13.328Z,26.93
2023-05-21T17:44:41.416Z,26.84
2023-05-21T17:47:08.351Z,26.79
2023-05-21T17:49:35.228Z,26.77
2023-05-21T17:52:04.454Z,26.73
2023-05-21T17:54:34.042Z,26.63
2023-05-21T17:57:00.968Z,26.56
2023-05-21T17:59:27.785Z,26.48
2023-05-21T18:01:55.862Z,26.38
2023-05-21T18:04:22.664Z,26.28
2023-05-21T18:06:49.627Z,26.21
2023-05-21T18:09:16.326Z,26.16
2023-05-21T18:11:43.558Z,26.07
2023-05-21T18:14:10.534Z,26.01
2023-05-21T18:16:37.360Z,25.94
2023-05-21T18:19:06.663Z,25.85
2023-05-21T18:21:33.640Z,25.81
2023-05-21T18:24:00.387Z,25.76
2023-05-21T18:26:27.112Z,25.68
2023-05-21T18:28:53.904Z,25.61
2023-05-21T18:31:21.212Z,25.59
2023-05-21T18:33:50.456Z,25.55
2023-05-21T18:36:22.841Z,25.50
2023-05-21T18:38:52.302Z,25.41
2023-05-21T18:41:19.961Z,25.35
2023-05-21T18:43:46.834Z,25.26
2023-05-21T18:46:13.497Z,25.14
2023-05-21T18:48:42.983Z,25.09
2023-05-21T18:51:09.915Z,25.04
2023-05-21T18:53:39.237Z,24.97
2023-05-21T18:56:07.429Z,24.88
2023-05-21T18:58:34.296Z,24.79
2023-05-21T19:01:01.107Z,24.69
2023-05-21T19:03:28.059Z,24.56
2023-05-21T19:05:55.041Z,24.47
2023-05-21T19:08:21.798Z,24.39
2023-05-21T19:10:49.908Z,24.30
2023-05-21T19:13:16.571Z,24.17
2023-05-21T19:15:47.211Z,24.10
2023-05-21T19:18:14.363Z,23.99
2023-05-21T19:20:41.042Z,23.80
2023-05-21T19:23:08.244Z,23.70
2023-05-21T19:25:34.999Z,23.59
2023-05-21T19:28:03.105Z,23.43
2023-05-21T19:30:29.861Z,23.33
2023-05-21T19:32:56.943Z,23.21
2023-05-21T19:35:23.759Z,23.03
2023-05-21T19:37:50.611Z,23.03
2023-05-21T19:40:17.809Z,22.86
2023-05-21T19:42:44.901Z,22.96
2023-05-21T19:45:13.378Z,22.92
2023-05-21T19:47:41.161Z,22.80
2023-05-21T19:50:08.418Z,22.59
2023-05-21T19:52:35.663Z,22.48
2023-05-21T19:55:05.793Z,22.31
2023-05-21T19:57:32.694Z,21.84
2023-05-21T19:59:59.729Z,21.86
2023-05-21T20:02:28.831Z,21.82
2023-05-21T20:04:57.808Z,21.71
2023-05-21T20:07:24.548Z,21.55
2023-05-21T20:09:52.316Z,21.45
2023-05-21T20:12:21.896Z,21.32
2023-05-21T20:14:48.772Z,21.21
2023-05-21T20:17:18.826Z,20.91
2023-05-21T20:19:49.708Z,20.94
2023-05-21T20:22:16.593Z,20.99
2023-05-21T20:24:43.336Z,20.90
2023-05-21T20:27:10.208Z,20.80
2023-05-21T20:29:36.911Z,20.46
2023-05-21T20:32:03.882Z,20.30
2023-05-21T20:34:30.833Z,20.25
2023-05-21T20:36:59.003Z,20.13
2023-05-21T20:39:27.969Z,19.82
2023-05-21T20:41:55.104Z,19.63
2023-05-21T20:44:22.340Z,19.82
2023-05-21T20:46:49.214Z,20.03
2023-05-21T20:49:17.655Z,19.96
2023-05-21T20:51:44.509Z,19.97
2023-05-21T20:54:12.686Z,19.89
2023-05-21T20:56:42.540Z,19.83
2023-05-21T20:59:11.370Z,19.51
2023-05-21T21:01:38.573Z,19.44
2023-05-21T21:04:05.542Z,19.44
2023-05-21T21:06:32.335Z,19.48
2023-05-21T21:08:59.185Z,19.51
2023-05-21T21:11:27.305Z,19.47
2023-05-21T21:13:54.003Z,19.31
2023-05-21T21:16:20.800Z,19.11
2023-05-21T21:18:47.511Z,19.27
2023-05-21T21:21:14.241Z,19.08
2023-05-21T21:23:40.959Z,18.77
2023-05-21T21:26:07.661Z,19.05
2023-05-21T21:28:35.696Z,19.09
2023-05-21T21:31:02.682Z,18.74
2023-05-21T21:33:29.585Z,18.79
2023-05-21T21:35:56.470Z,18.84
2023-05-21T21:38:23.197Z,18.42
2023-05-21T21:40:49.835Z,17.96
2023-05-21T21:43:16.572Z,18.02
2023-05-21T21:45:44.733Z,18.30
2023-05-21T21:48:11.651Z,17.97
2023-05-21T21:50:38.658Z,17.97
2023-05-21T21:53:05.937Z,18.20
2023-05-21T21:55:33.107Z,18.42
2023-05-21T21:57:59.806Z,18.46
2023-05-21T22:00:26.892Z,18.47
2023-05-21T22:02:55.420Z,18.48
2023-05-21T22:05:22.235Z,18.42
2023-05-21T22:07:48.975Z,18.35
2023-05-21T22:10:16.286Z,18.31
2023-05-21T22:12:43.587Z,18.29
2023-05-21T22:15:17.906Z,18.21
2023-05-21T22:17:44.674Z,18.08
2023-05-21T22:20:12.930Z,18.07
2023-05-21T22:22:39.651Z,18.04
2023-05-21T22:25:06.530Z,17.97
2023-05-21T22:27:33.270Z,17.84
2023-05-21T22:30:00.630Z,17.77
2023-05-21T22:32:27.399Z,17.74
2023-05-21T22:34:54.058Z,17.68
2023-05-21T22:37:23.532Z,17.68
2023-05-21T22:39:50.253Z,17.26
2023-05-21T22:42:16.963Z,17.22
2023-05-21T22:44:43.683Z,17.31
2023-05-21T22:47:10.469Z,17.54
2023-05-21T22:49:38.360Z,17.56
2023-05-21T22:52:06.327Z,17.67
2023-05-21T22:54:34.447Z,17.79
2023-05-21T22:57:01.598Z,17.81
2023-05-21T22:59:28.527Z,17.78
2023-05-21T23:01:55.588Z,17.84
2023-05-21T23:04:35.768Z,17.79
2023-05-21T23:07:09.844Z,17.60
2023-05-21T23:09:37.889Z,17.47
2023-05-21T23:12:05.003Z,17.45
2023-05-21T23:14:31.814Z,17.39
2023-05-21T23:17:01.913Z,17.47
2023-05-21T23:19:29.432Z,17.41
2023-05-21T23:21:56.394Z,17.32
2023-05-21T23:24:23.219Z,17.18
2023-05-21T23:26:51.283Z,17.05
2023-05-21T23:29:18.396Z,17.20
2023-05-21T23:31:46.866Z,17.33
2023-05-21T23:34:13.792Z,17.31
2023-05-21T23:36:40.463Z,17.24
2023-05-21T23:39:07.224Z,17.16
2023-05-21T23:41:34.151Z,17.09
2023-05-21T23:44:02.342Z,17.05
2023-05-21T23:46:29.067Z,17.00
2023-05-21T23:48:55.823Z,16.95
2023-05-21T23:51:22.538Z,16.92
2023-05-21T23:53:49.410Z,17.07
2023-05-21T23:56:16.053Z,17.10
2023-05-21T23:58:42.781Z,17.10
